createdAt,value
2023-04-26T00:04:05.206Z,101655.03
2023-04-26T00:09:14.541Z,101656.50
2023-04-26T00:14:18.466Z,101659.41
2023-04-26T00:19:21.406Z,101664.25
2023-04-26T00:24:23.113Z,101664.63
2023-04-26T00:29:24.805Z,101658.38
2023-04-26T00:34:32.552Z,101661.63
2023-04-26T00:39:36.800Z,101661.97
2023-04-26T00:44:40.945Z,101661.97
2023-04-26T00:49:45.425Z,101655.09
2023-04-26T00:54:49.028Z,101655.59
2023-04-26T00:59:50.734Z,101653.03
2023-04-26T01:04:55.934Z,101661.34
2023-04-26T01:10:00.441Z,101666.94
2023-04-26T01:15:06.300Z,101663.19
2023-04-26T01:20:10.484Z,101664.50
2023-04-26T01:25:12.776Z,101661.38
2023-04-26T01:30:16.912Z,101676.22
2023-04-26T01:35:18.609Z,101684.00
2023-04-26T01:40:23.102Z,101693.03
2023-04-26T01:45:24.822Z,101688.22
2023-04-26T01:50:58.763Z,101688.47
2023-04-26T01:56:03.732Z,101693.41
2023-04-26T02:01:09.097Z,101713.03
2023-04-26T02:06:11.989Z,101697.03
2023-04-26T02:11:13.753Z,101676.78
2023-04-26T02:16:17.779Z,101684.63
2023-04-26T02:21:21.544Z,101677.88
2023-04-26T02:26:32.593Z,101663.91
2023-04-26T02:31:35.996Z,101657.78
2023-04-26T02:36:38.224Z,101670.88
2023-04-26T02:41:42.293Z,101674.47
2023-04-26T02:46:43.957Z,101667.78
2023-04-26T02:51:46.271Z,101664.03
2023-04-26T02:56:50.912Z,101671.16
2023-04-26T03:01:56.122Z,101666.97
2023-04-26T03:06:58.456Z,101668.66
2023-04-26T03:12:06.097Z,101660.69
2023-04-26T03:17:08.404Z,101654.38
2023-04-26T03:22:16.118Z,101656.09
2023-04-26T03:27:17.876Z,101662.56
2023-04-26T03:32:19.698Z,101667.84
2023-04-26T03:37:21.983Z,101666.16
2023-04-26T03:42:31.355Z,101667.06
2023-04-26T03:47:33.188Z,101665.72
2023-04-26T03:52:34.927Z,101670.44
2023-04-26T03:57:38.365Z,101660.06
2023-04-26T04:02:41.689Z,101658.22
2023-04-26T04:07:45.262Z,101659.25
2023-04-26T04:12:49.399Z,101659.75
2023-04-26T04:17:51.263Z,101664.06
2023-04-26T04:22:56.213Z,101667.81
2023-04-26T04:28:02.000Z,101675.03
2023-04-26T04:33:09.100Z,101669.34
2023-04-26T04:38:13.288Z,101671.78
2023-04-26T04:43:17.795Z,101677.25
2023-04-26T04:48:22.620Z,101675.22
2023-04-26T04:53:27.084Z,101678.84
2023-04-26T04:58:31.277Z,101681.88
2023-04-26T05:03:34.177Z,101673.41
2023-04-26T05:08:37.760Z,101672.63
2023-04-26T05:13:40.962Z,101672.91
2023-04-26T05:18:45.156Z,101688.81
2023-04-26T05:23:49.389Z,101713.25
2023-04-26T05:28:53.310Z,101698.22
2023-04-26T05:34:17.499Z,101702.75
2023-04-26T05:39:27.252Z,101701.78
2023-04-26T05:44:29.452Z,101698.44
2023-04-26T05:49:31.628Z,101703.16
2023-04-26T05:54:36.151Z,101703.94
2023-04-26T05:59:41.260Z,101718.91
2023-04-26T06:04:43.676Z,101719.56
2023-04-26T06:09:48.774Z,101708.22
2023-04-26T06:14:50.962Z,101709.25
2023-04-26T06:20:01.428Z,101702.34
2023-04-26T06:25:06.762Z,101702.34
2023-04-26T06:30:13.107Z,101713.94
2023-04-26T06:35:23.325Z,101707.91
2023-04-26T06:40:25.398Z,101712.59
2023-04-26T06:45:27.893Z,101713.63
2023-04-26T06:50:34.293Z,101704.91
2023-04-26T06:55:36.122Z,101715.44
2023-04-26T07:00:40.064Z,101735.00
2023-04-26T07:05:44.097Z,101745.28
2023-04-26T07:10:55.438Z,101748.53
2023-04-26T07:15:57.334Z,101755.13
2023-04-26T07:21:06.140Z,101762.06
2023-04-26T07:26:10.474Z,101764.09
2023-04-26T07:31:14.522Z,101764.94
2023-04-26T07:36:16.269Z,101760.91
2023-04-26T07:41:17.976Z,101763.03
2023-04-26T07:46:24.754Z,101780.19
2023-04-26T07:51:27.501Z,101801.63
2023-04-26T07:56:29.239Z,101784.28
2023-04-26T08:01:35.935Z,101766.41
2023-04-26T08:06:39.223Z,101763.00
2023-04-26T08:11:45.465Z,101770.75
2023-04-26T08:16:50.078Z,101767.81
2023-04-26T08:21:51.859Z,101769.84
2023-04-26T08:26:58.575Z,101766.56
2023-04-26T08:32:02.488Z,101766.28
2023-04-26T08:37:05.406Z,101759.72
2023-04-26T08:42:14.953Z,101748.38
2023-04-26T08:47:21.767Z,101804.28
2023-04-26T08:52:23.715Z,101772.22
2023-04-26T08:57:27.936Z,101773.31
2023-04-26T09:02:32.350Z,101778.41
2023-04-26T09:07:40.939Z,101779.34
2023-04-26T09:12:42.670Z,101782.00
2023-04-26T09:17:45.979Z,101789.03
2023-04-26T09:22:52.020Z,101787.75
2023-04-26T09:27:54.002Z,101798.63
2023-04-26T09:32:57.207Z,101797.84
2023-04-26T09:38:07.817Z,101797.63
2023-04-26T09:43:24.944Z,101795.78
2023-04-26T09:48:30.689Z,101794.72
2023-04-26T09:53:46.557Z,101788.50
2023-04-26T09:58:58.112Z,101795.06
2023-04-26T10:04:04.615Z,101803.59
2023-04-26T10:09:09.192Z,101799.25
2023-04-26T10:14:14.078Z,101798.38
2023-04-26T10:19:18.382Z,101812.41
2023-04-26T10:24:20.176Z,101811.72
2023-04-26T10:29:24.850Z,101808.31
2023-04-26T10:34:33.297Z,101812.69
2023-04-26T10:39:35.015Z,101838.75
2023-04-26T10:44:45.887Z,101821.75
2023-04-26T10:49:50.468Z,101827.78
2023-04-26T10:54:57.992Z,101820.25
2023-04-26T11:00:14.694Z,101802.41
2023-04-26T11:05:47.446Z,101800.19
2023-04-26T11:11:04.787Z,101801.41
2023-04-26T11:16:11.231Z,101807.31
2023-04-26T11:21:18.311Z,101805.47
2023-04-26T11:26:20.054Z,101804.47
2023-04-26T11:31:22.185Z,101808.81
2023-04-26T11:36:28.649Z,101826.56
2023-04-26T11:41:30.529Z,101821.69
2023-04-26T11:46:34.585Z,101822.31
2023-04-26T11:51:39.020Z,101828.09
2023-04-26T11:56:42.950Z,101831.84
2023-04-26T12:01:51.518Z,101830.69
2023-04-26T12:06:53.307Z,101824.06
2023-04-26T12:12:02.254Z,101837.41
2023-04-26T12:17:10.533Z,101842.81
2023-04-26T12:22:14.704Z,101850.34
2023-04-26T12:27:22.921Z,101848.75
2023-04-26T12:32:27.534Z,101844.16
2023-04-26T12:37:29.355Z,101857.34
2023-04-26T12:42:33.437Z,101858.69
2023-04-26T12:47:35.527Z,101864.16
2023-04-26T12:52:37.278Z,101863.66
2023-04-26T12:57:43.149Z,101859.31
2023-04-26T13:02:47.491Z,101874.72
2023-04-26T13:07:51.741Z,101866.88
2023-04-26T13:12:53.966Z,101866.00
2023-04-26T13:17:55.919Z,101862.72
2023-04-26T13:22:59.911Z,101875.50
2023-04-26T13:28:04.471Z,101872.88
2023-04-26T13:33:06.239Z,101876.53
2023-04-26T13:38:08.095Z,101876.66
2023-04-26T13:43:10.763Z,101879.97
2023-04-26T13:48:19.437Z,101868.69
2023-04-26T13:53:23.822Z,101885.25
2023-04-26T13:58:27.989Z,101889.72
2023-04-26T14:03:30.057Z,101875.69
2023-04-26T14:08:32.019Z,101877.38
2023-04-26T14:13:35.835Z,101871.28
2023-04-26T14:18:37.714Z,101876.16
2023-04-26T14:23:44.468Z,101887.31
2023-04-26T14:28:46.252Z,101888.34
2023-04-26T14:33:50.238Z,101884.41
2023-04-26T14:38:51.972Z,101886.97
2023-04-26T14:43:56.151Z,101884.00
2023-04-26T14:48:58.216Z,101887.50
2023-04-26T14:54:02.402Z,101890.44
2023-04-26T14:59:04.397Z,101890.38
2023-04-26T15:04:08.662Z,101880.84
2023-04-26T15:09:13.163Z,101886.53
2023-04-26T15:14:17.137Z,101888.13
2023-04-26T15:19:19.426Z,101881.88
2023-04-26T15:24:23.569Z,101883.19
2023-04-26T15:29:25.348Z,101882.88
2023-04-26T15:34:30.201Z,101880.03
2023-04-26T15:39:38.348Z,101886.13
2023-04-26T15:44:42.454Z,101904.06
2023-04-26T15:49:46.388Z,101900.03
2023-04-26T15:54:48.273Z,101896.44
2023-04-26T15:59:50.005Z,101894.28
2023-04-26T16:04:57.312Z,101897.31
2023-04-26T16:10:01.151Z,101900.16
2023-04-26T16:15:06.814Z,101899.41
2023-04-26T16:20:11.611Z,101892.59
2023-04-26T16:25:13.488Z,101898.31
2023-04-26T16:30:15.406Z,101898.91
2023-04-26T16:35:22.568Z,101902.09
2023-04-26T16:40:27.412Z,101907.50
2023-04-26T16:45:31.404Z,101894.75
2023-04-26T16:50:35.652Z,101888.41
2023-04-26T16:55:41.798Z,101888.31
2023-04-26T17:00:46.106Z,101890.09
2023-04-26T17:05:50.640Z,101893.50
2023-04-26T17:10:52.825Z,101891.91
2023-04-26T17:15:57.176Z,101898.81
2023-04-26T17:21:01.736Z,101903.56
2023-04-26T17:26:05.892Z,101892.13
2023-04-26T17:31:15.439Z,101893.13
2023-04-26T17:36:17.821Z,101903.09
2023-04-26T17:41:22.507Z,101906.03
2023-04-26T17:46:26.627Z,101901.22
2023-04-26T17:51:28.483Z,101912.69
2023-04-26T17:56:30.476Z,101909.53
2023-04-26T18:01:34.751Z,101907.34
2023-04-26T18:06:40.181Z,101908.03
2023-04-26T18:11:47.590Z,101918.81
2023-04-26T18:16:51.588Z,101916.44
2023-04-26T18:21:55.603Z,101926.72
2023-04-26T18:26:57.396Z,101929.22
2023-04-26T18:32:01.392Z,101928.91
2023-04-26T18:37:03.301Z,101927.34
2023-04-26T18:42:05.510Z,101936.22
2023-04-26T18:47:09.857Z,101934.34
2023-04-26T18:52:11.611Z,101939.16
2023-04-26T18:57:14.764Z,101952.16
2023-04-26T19:02:16.700Z,101946.81
2023-04-26T19:07:21.112Z,101963.84
2023-04-26T19:12:25.402Z,101989.63
2023-04-26T19:17:31.822Z,101993.69
2023-04-26T19:22:37.334Z,101986.19
2023-04-26T19:27:44.817Z,101979.28
2023-04-26T19:32:46.781Z,101972.88
2023-04-26T19:38:00.710Z,101965.63
2023-04-26T19:43:04.099Z,101959.19
2023-04-26T19:48:12.951Z,101963.72
2023-04-26T19:53:17.183Z,101964.94
2023-04-26T19:58:24.277Z,101981.41
2023-04-26T20:03:28.484Z,101987.53
2023-04-26T20:08:31.509Z,101986.50
2023-04-26T20:13:38.135Z,101983.44
2023-04-26T20:18:39.950Z,101980.50
2023-04-26T20:23:41.700Z,101987.44
2023-04-26T20:28:43.655Z,101979.91
2023-04-26T20:33:45.564Z,101991.78
2023-04-26T20:38:49.770Z,101989.53
2023-04-26T20:43:56.526Z,101993.78
2023-04-26T20:49:01.542Z,101993.19
2023-04-26T20:54:06.463Z,101988.34
2023-04-26T20:59:18.806Z,101987.97
2023-04-26T21:04:25.428Z,101994.75
2023-04-26T21:09:31.676Z,101989.91
2023-04-26T21:14:33.368Z,101989.53
2023-04-26T21:19:38.571Z,101992.78
2023-04-26T21:24:45.555Z,101993.91
2023-04-26T21:29:47.208Z,101998.22
2023-04-26T21:34:49.001Z,101993.00
2023-04-26T21:39:50.829Z,101998.50
2023-04-26T21:45:00.695Z,102002.81
2023-04-26T21:50:07.701Z,101992.16
2023-04-26T21:55:09.895Z,101997.19
2023-04-26T22:00:13.208Z,101996.56
2023-04-26T22:05:19.988Z,101998.22
2023-04-26T22:10:21.712Z,102004.63
2023-04-26T22:15:23.409Z,102004.25
2023-04-26T22:20:25.126Z,102000.69
2023-04-26T22:25:26.980Z,101999.91
2023-04-26T22:30:31.061Z,102017.66
2023-04-26T22:35:32.916Z,102016.63
2023-04-26T22:40:37.389Z,102016.56
2023-04-26T22:45:41.489Z,102013.75
2023-04-26T22:50:45.768Z,102016.81
2023-04-26T22:55:51.824Z,102033.97
2023-04-26T23:00:55.837Z,102031.09
2023-04-26T23:05:59.868Z,102044.94
2023-04-26T23:11:11.305Z,102041.69
2023-04-26T23:16:18.693Z,102060.84
2023-04-26T23:21:20.624Z,102047.53
2023-04-26T23:26:31.570Z,102046.06
2023-04-26T23:31:33.351Z,102047.19
2023-04-26T23:36:35.125Z,102044.06
2023-04-26T23:41:41.860Z,102040.81
2023-04-26T23:46:43.603Z,102038.03
2023-04-26T23:51:50.080Z,102034.88
2023-04-26T23:56:52.095Z,102039.00
